Time;durP1;ratioP1;P1;durP2;ratioP2;P2;SDS_P1;SDS_P2;PMS_P1;PMS_P2;Temp;Humidity;BMP_temperature;BMP_pressure;BME280_temperature;BME280_humidity;BME280_pressure;Samples;Min_cycle;Max_cycle;Signal;HPM_P1;HPM_P2
2022/07/07 00:00:05;;;;;;;;;;;28.80;39.30;;;;;;672660;29;1101;-89
2022/07/07 00:00:26;;;;;;;;;;;27.10;38.40;;;;;;672673;29;1094;-89
2022/07/07 00:00:47;;;;;;;;;;;28.80;42.80;;;;;;670152;29;1259;-94
2022/07/07 00:01:07;;;;;;;;;;;28.80;38.50;;;;;;671897;29;1654;-90
2022/07/07 00:01:29;;;;;;;;;;;28.80;42.00;;;;;;672674;29;1363;-90
2022/07/07 00:01:50;;;;;;;;;;;28.80;39.10;;;;;;671987;29;1334;-90
2022/07/07 00:02:11;;;;;;;;;;;28.80;39.60;;;;;;672241;29;1409;-90
2022/07/07 00:02:31;;;;;;;;;;;28.80;38.70;;;;;;670677;29;852;-90
2022/07/07 00:02:52;;;;;;;;;;;28.90;40.50;;;;;;673245;29;1357;-93
2022/07/07 00:03:13;;;;;;;;;;;28.70;42.50;;;;;;672714;29;1248;-89
2022/07/07 00:03:33;;;;;;;;;;;28.70;39.20;;;;;;673007;29;1104;-90
2022/07/07 00:03:54;;;;;;;;;;;28.90;39.00;;;;;;672668;29;1364;-89
2022/07/07 00:04:14;;;;;;;;;;;28.70;39.00;;;;;;672800;29;1361;-90
2022/07/07 00:04:35;;;;;;;;;;;28.70;39.10;;;;;;675286;29;1219;-89
2022/07/07 00:04:56;;;;;;;;;;;28.70;39.00;;;;;;675366;29;816;-89
2022/07/07 00:05:16;;;;;;;;;;;28.70;40.10;;;;;;675662;29;1224;-87
2022/07/07 00:05:38;;;;;;;;;;;28.70;39.40;;;;;;675517;29;1224;-88
2022/07/07 00:05:58;;;;;;;;;;;28.80;37.70;;;;;;675201;29;1360;-89
2022/07/07 00:06:19;;;;;;;;;;;28.70;38.90;;;;;;675499;29;1373;-90
2022/07/07 00:06:40;;;;;;;;;;;28.70;39.40;;;;;;675209;29;1199;-89
2022/07/07 00:07:00;;;;;;;;;;;28.70;39.00;;;;;;672686;29;1297;-90
2022/07/07 00:07:21;;;;;;;;;;;28.70;39.10;;;;;;672709;29;1096;-90
2022/07/07 00:07:41;;;;;;;;;;;28.70;39.60;;;;;;670022;29;1208;-89
2022/07/07 00:08:02;;;;;;;;;;;28.70;39.00;;;;;;670137;29;1223;-89
2022/07/07 00:08:23;;;;;;;;;;;28.70;39.90;;;;;;670093;29;1319;-89
2022/07/07 00:08:44;;;;;;;;;;;28.70;39.20;;;;;;672266;29;1476;-89
2022/07/07 00:09:04;;;;;;;;;;;28.70;40.80;;;;;;671440;29;1459;-88
2022/07/07 00:09:25;;;;;;;;;;;28.70;40.10;;;;;;670585;29;1169;-88
2022/07/07 00:09:46;;;;;;;;;;;28.00;38.60;;;;;;669928;29;1300;-87
2022/07/07 00:10:07;;;;;;;;;;;28.60;42.00;;;;;;670190;29;1303;-89
2022/07/07 00:10:27;;;;;;;;;;;28.60;39.10;;;;;;670155;29;1169;-91
2022/07/07 00:10:48;;;;;;;;;;;28.60;39.70;;;;;;670407;29;1367;-89
2022/07/07 00:11:09;;;;;;;;;;;28.60;41.50;;;;;;670525;29;1078;-89
2022/07/07 00:11:30;;;;;;;;;;;28.60;40.00;;;;;;672478;29;816;-89
2022/07/07 00:11:50;;;;;;;;;;;28.60;38.80;;;;;;673011;29;1271;-90
2022/07/07 00:12:12;;;;;;;;;;;28.60;39.10;;;;;;672303;29;1306;-88
2022/07/07 00:12:32;;;;;;;;;;;28.60;38.60;;;;;;672666;29;1266;-89
2022/07/07 00:12:53;;;;;;;;;;;28.60;40.70;;;;;;673067;29;1223;-89
2022/07/07 00:13:16;;;;;;;;;;;28.60;39.90;;;;;;675339;29;1219;-89
2022/07/07 00:13:36;;;;;;;;;;;28.70;39.80;;;;;;671987;29;1240;-89
2022/07/07 00:13:57;;;;;;;;;;;28.60;40.50;;;;;;672772;29;1136;-89
2022/07/07 00:14:18;;;;;;;;;;;28.70;39.80;;;;;;672796;29;1262;-90
2022/07/07 00:14:38;;;;;;;;;;;28.60;39.40;;;;;;671842;29;1319;-90
2022/07/07 00:14:59;;;;;;;;;;;28.60;39.30;;;;;;670764;29;1366;-90
2022/07/07 00:15:20;;;;;;;;;;;28.60;39.90;;;;;;670432;29;1377;-90
2022/07/07 00:15:45;;;;;;;;;;;28.60;39.60;;;;;;669816;29;1965;-90
2022/07/07 00:16:05;;;;;;;;;;;28.70;38.90;;;;;;667686;29;1330;-89
2022/07/07 00:16:26;;;;;;;;;;;28.60;41.10;;;;;;668616;29;1110;-89
2022/07/07 00:16:46;;;;;;;;;;;28.60;40.90;;;;;;666913;29;1231;-89
2022/07/07 00:17:07;;;;;;;;;;;28.70;41.20;;;;;;665971;29;1281;-89
2022/07/07 00:17:28;;;;;;;;;;;28.70;38.50;;;;;;667453;29;1237;-89
2022/07/07 00:17:48;;;;;;;;;;;28.70;39.60;;;;;;665366;29;1264;-90
2022/07/07 00:18:09;;;;;;;;;;;28.70;39.60;;;;;;667676;29;1205;-90
2022/07/07 00:18:30;;;;;;;;;;;28.70;40.10;;;;;;667848;29;1201;-89
2022/07/07 00:18:50;;;;;;;;;;;28.70;39.40;;;;;;670127;29;1231;-89
2022/07/07 00:19:11;;;;;;;;;;;28.60;38.30;;;;;;667931;29;1227;-90
2022/07/07 00:19:32;;;;;;;;;;;28.70;41.50;;;;;;672976;29;1133;-90
2022/07/07 00:19:52;;;;;;;;;;;28.70;39.20;;;;;;669931;29;1090;-89
2022/07/07 00:20:13;;;;;;;;;;;28.70;39.80;;;;;;667966;29;1340;-90
2022/07/07 00:20:34;;;;;;;;;;;28.70;40.00;;;;;;667270;29;1274;-89
2022/07/07 00:20:55;;;;;;;;;;;28.70;38.90;;;;;;662655;29;1407;-90
2022/07/07 00:21:15;;;;;;;;;;;28.60;38.30;;;;;;665465;29;1217;-90
2022/07/07 00:21:36;;;;;;;;;;;28.70;39.60;;;;;;668078;29;1245;-89
2022/07/07 00:21:57;;;;;;;;;;;28.70;38.60;;;;;;667856;29;1275;-90
2022/07/07 00:22:17;;;;;;;;;;;28.70;38.30;;;;;;670334;29;1113;-89
2022/07/07 00:22:38;;;;;;;;;;;28.60;38.90;;;;;;670529;29;813;-90
2022/07/07 00:22:58;;;;;;;;;;;28.70;40.00;;;;;;670232;29;1422;-89
2022/07/07 00:23:19;;;;;;;;;;;28.70;40.40;;;;;;670239;29;1224;-90
2022/07/07 00:23:40;;;;;;;;;;;28.70;39.70;;;;;;667759;29;1314;-90
2022/07/07 00:24:00;;;;;;;;;;;28.90;39.20;;;;;;667714;29;1099;-90
2022/07/07 00:24:21;;;;;;;;;;;28.70;40.50;;;;;;665095;29;1297;-90
2022/07/07 00:24:42;;;;;;;;;;;28.80;38.80;;;;;;667463;29;1350;-90
2022/07/07 00:25:03;;;;;;;;;;;28.70;39.20;;;;;;665135;29;1391;-89
2022/07/07 00:25:23;;;;;;;;;;;28.80;38.00;;;;;;665533;29;1073;-89
2022/07/07 00:25:44;;;;;;;;;;;28.70;39.80;;;;;;667979;29;1488;-89
2022/07/07 00:26:04;;;;;;;;;;;28.80;39.90;;;;;;670475;29;1117;-89
2022/07/07 00:26:25;;;;;;;;;;;28.70;39.50;;;;;;670212;29;1279;-89
2022/07/07 00:26:46;;;;;;;;;;;28.90;39.50;;;;;;670117;29;1598;-88
2022/07/07 00:27:06;;;;;;;;;;;28.80;38.50;;;;;;672854;29;1392;-90
2022/07/07 00:27:27;;;;;;;;;;;28.80;39.40;;;;;;670372;29;1283;-90
2022/07/07 00:27:47;;;;;;;;;;;28.70;39.30;;;;;;669867;29;1539;-88
2022/07/07 00:28:08;;;;;;;;;;;28.80;38.80;;;;;;667813;29;1340;-90
2022/07/07 00:28:32;;;;;;;;;;;28.80;40.10;;;;;;670149;29;1301;-90
2022/07/07 00:28:53;;;;;;;;;;;28.70;38.00;;;;;;670154;29;1248;-88
2022/07/07 00:29:13;;;;;;;;;;;28.80;40.00;;;;;;672619;29;1331;-90
2022/07/07 00:29:34;;;;;;;;;;;28.80;38.90;;;;;;669942;29;1261;-89
2022/07/07 00:29:54;;;;;;;;;;;28.80;40.20;;;;;;667568;29;1220;-87
2022/07/07 00:30:15;;;;;;;;;;;28.80;38.50;;;;;;667866;29;832;-94
2022/07/07 00:30:40;;;;;;;;;;;28.70;38.80;;;;;;669328;29;1501;-93
2022/07/07 00:31:00;;;;;;;;;;;28.80;37.80;;;;;;668615;29;1232;-94
2022/07/07 00:31:21;;;;;;;;;;;28.80;37.90;;;;;;671195;29;827;-93
2022/07/07 00:31:42;;;;;;;;;;;28.70;39.50;;;;;;670895;29;1504;-91
2022/07/07 00:32:03;;;;;;;;;;;28.70;37.60;;;;;;671320;29;1506;-89
2022/07/07 00:32:23;;;;;;;;;;;28.70;37.90;;;;;;672742;29;1539;-88
2022/07/07 00:32:44;;;;;;;;;;;28.70;39.00;;;;;;670089;29;1428;-90
2022/07/07 00:33:05;;;;;;;;;;;28.80;39.70;;;;;;670508;29;1461;-89
2022/07/07 00:33:25;;;;;;;;;;;28.80;38.20;;;;;;670026;29;1576;-85
2022/07/07 00:33:46;;;;;;;;;;;28.80;38.40;;;;;;670651;29;1515;-90
2022/07/07 00:34:06;;;;;;;;;;;28.80;38.00;;;;;;671504;29;1584;-88
2022/07/07 00:34:27;;;;;;;;;;;28.80;37.90;;;;;;672805;29;1227;-88
2022/07/07 00:34:47;;;;;;;;;;;28.80;38.40;;;;;;675197;29;927;-88
2022/07/07 00:35:08;;;;;;;;;;;26.60;37.40;;;;;;672802;29;1566;-88
2022/07/07 00:35:29;;;;;;;;;;;28.90;38.30;;;;;;669937;29;1911;-87
2022/07/07 00:35:50;;;;;;;;;;;28.80;39.70;;;;;;670114;29;792;-88
2022/07/07 00:36:10;;;;;;;;;;;28.80;38.40;;;;;;669976;29;1403;-87
2022/07/07 00:36:31;;;;;;;;;;;28.70;39.00;;;;;;670038;29;1441;-88
2022/07/07 00:36:52;;;;;;;;;;;28.80;38.80;;;;;;669956;29;1429;-86
2022/07/07 00:37:12;;;;;;;;;;;28.80;40.00;;;;;;671787;29;1506;-88
2022/07/07 00:37:37;;;;;;;;;;;28.80;39.60;;;;;;672650;29;828;-87
2022/07/07 00:37:58;;;;;;;;;;;28.80;37.70;;;;;;670857;29;1296;-88
2022/07/07 00:38:19;;;;;;;;;;;28.80;38.30;;;;;;669977;29;1223;-88
2022/07/07 00:38:40;;;;;;;;;;;28.80;38.70;;;;;;669368;29;1535;-88
2022/07/07 00:39:01;;;;;;;;;;;28.80;38.20;;;;;;668538;29;883;-88
2022/07/07 00:39:21;;;;;;;;;;;28.80;38.20;;;;;;670070;29;788;-87
2022/07/07 00:39:42;;;;;;;;;;;28.80;38.20;;;;;;667822;29;1364;-89
2022/07/07 00:40:03;;;;;;;;;;;28.80;38.10;;;;;;670172;29;1084;-88
2022/07/07 00:40:23;;;;;;;;;;;28.80;37.90;;;;;;673023;29;835;-88
2022/07/07 00:40:53;;;;;;;;;;;28.80;37.90;;;;;;672548;29;1427;-88
2022/07/07 00:41:14;;;;;;;;;;;28.80;38.60;;;;;;672500;29;1231;-89
2022/07/07 00:41:36;;;;;;;;;;;28.80;38.50;;;;;;671642;29;1096;-88
2022/07/07 00:41:56;;;;;;;;;;;28.80;38.40;;;;;;669966;29;1524;-88
2022/07/07 00:42:17;;;;;;;;;;;28.80;38.90;;;;;;670045;29;1354;-88
2022/07/07 00:42:38;;;;;;;;;;;28.80;38.50;;;;;;669928;29;1290;-90
2022/07/07 00:42:59;;;;;;;;;;;28.80;39.10;;;;;;667537;29;1435;-89
2022/07/07 00:43:19;;;;;;;;;;;29.00;38.80;;;;;;667986;29;1253;-90
2022/07/07 00:43:41;;;;;;;;;;;28.70;38.90;;;;;;667897;29;1428;-88
2022/07/07 00:44:01;;;;;;;;;;;28.80;38.50;;;;;;670262;29;1265;-90
2022/07/07 00:44:22;;;;;;;;;;;28.80;38.80;;;;;;670657;29;1256;-88
2022/07/07 00:44:43;;;;;;;;;;;28.80;38.50;;;;;;669870;29;1144;-88
2022/07/07 00:45:06;;;;;;;;;;;28.80;38.10;;;;;;665556;29;1324;-88
2022/07/07 00:45:26;;;;;;;;;;;28.80;39.30;;;;;;667489;29;1493;-89
2022/07/07 00:45:48;;;;;;;;;;;28.70;40.30;;;;;;667717;29;1305;-90
2022/07/07 00:46:09;;;;;;;;;;;28.80;37.90;;;;;;666025;29;1223;-89
2022/07/07 00:46:36;;;;;;;;;;;28.70;37.80;;;;;;668658;29;1006;-88
2022/07/07 00:46:58;;;;;;;;;;;28.80;38.30;;;;;;672029;29;1499;-90
2022/07/07 00:47:19;;;;;;;;;;;28.80;38.70;;;;;;671429;29;1243;-90
2022/07/07 00:47:40;;;;;;;;;;;28.70;38.60;;;;;;674272;29;1196;-89
2022/07/07 00:48:01;;;;;;;;;;;28.80;39.10;;;;;;674261;29;1262;-88
2022/07/07 00:48:21;;;;;;;;;;;28.80;38.80;;;;;;672776;29;1227;-87
2022/07/07 00:48:42;;;;;;;;;;;28.80;38.20;;;;;;672310;29;1436;-88
2022/07/07 00:49:03;;;;;;;;;;;28.80;38.50;;;;;;670489;29;1193;-88
2022/07/07 00:49:23;;;;;;;;;;;28.80;38.70;;;;;;670247;29;1231;-87
2022/07/07 00:49:44;;;;;;;;;;;28.80;39.20;;;;;;670616;29;1222;-88
2022/07/07 00:50:05;;;;;;;;;;;27.20;37.60;;;;;;670457;29;1283;-86
2022/07/07 00:50:25;;;;;;;;;;;28.80;39.40;;;;;;669768;29;1254;-89
2022/07/07 00:50:47;;;;;;;;;;;28.70;38.30;;;;;;667619;29;1247;-88
2022/07/07 00:51:10;;;;;;;;;;;28.90;38.30;;;;;;665496;29;1235;-89
2022/07/07 00:51:31;;;;;;;;;;;28.70;37.90;;;;;;670166;29;1287;-90
2022/07/07 00:51:52;;;;;;;;;;;28.70;38.30;;;;;;670834;29;1247;-89
2022/07/07 00:52:12;;;;;;;;;;;28.70;38.10;;;;;;669861;29;1182;-89
2022/07/07 00:52:33;;;;;;;;;;;28.70;38.10;;;;;;667449;29;1283;-90
2022/07/07 00:52:54;;;;;;;;;;;28.70;38.30;;;;;;667609;29;742;-89
2022/07/07 00:53:15;;;;;;;;;;;28.70;39.10;;;;;;667711;29;1371;-89
2022/07/07 00:53:36;;;;;;;;;;;28.70;38.60;;;;;;670529;29;1082;-89
2022/07/07 00:53:57;;;;;;;;;;;28.70;38.40;;;;;;672655;29;1235;-90
2022/07/07 00:54:18;;;;;;;;;;;28.70;39.30;;;;;;673019;29;1172;-90
2022/07/07 00:54:38;;;;;;;;;;;28.60;39.00;;;;;;673283;29;1230;-89
2022/07/07 00:55:00;;;;;;;;;;;28.60;38.30;;;;;;673033;29;1109;-89
2022/07/07 00:55:20;;;;;;;;;;;28.60;38.00;;;;;;672896;29;1275;-88
2022/07/07 00:55:41;;;;;;;;;;;28.60;39.50;;;;;;671279;29;1888;-89
2022/07/07 00:56:01;;;;;;;;;;;28.60;39.00;;;;;;671831;29;1002;-89
2022/07/07 00:56:22;;;;;;;;;;;28.60;39.50;;;;;;669568;29;1347;-88
2022/07/07 00:56:42;;;;;;;;;;;28.70;38.80;;;;;;669618;29;1449;-89
2022/07/07 00:57:04;;;;;;;;;;;28.60;38.50;;;;;;669843;29;1205;-90
2022/07/07 00:57:25;;;;;;;;;;;28.60;37.90;;;;;;672660;29;1294;-89
2022/07/07 00:57:45;;;;;;;;;;;28.60;38.00;;;;;;675485;29;1528;-88
2022/07/07 00:58:06;;;;;;;;;;;28.60;37.90;;;;;;674695;29;1334;-90
2022/07/07 00:58:27;;;;;;;;;;;28.60;38.10;;;;;;671951;29;1225;-91
2022/07/07 00:58:47;;;;;;;;;;;28.60;37.90;;;;;;669136;29;1217;-90
2022/07/07 00:59:08;;;;;;;;;;;28.60;38.10;;;;;;667843;29;1448;-89
2022/07/07 00:59:29;;;;;;;;;;;28.60;38.10;;;;;;667432;29;1205;-89
2022/07/07 00:59:50;;;;;;;;;;;28.60;38.10;;;;;;667562;29;1225;-88
2022/07/07 01:00:12;;;;;;;;;;;28.70;38.40;;;;;;667806;29;1165;-88
2022/07/07 01:00:33;;;;;;;;;;;28.70;38.30;;;;;;672667;29;1244;-89
2022/07/07 01:00:54;;;;;;;;;;;28.70;38.30;;;;;;674447;29;1257;-88
2022/07/07 01:01:14;;;;;;;;;;;28.70;39.40;;;;;;670551;29;1102;-89
2022/07/07 01:01:39;;;;;;;;;;;28.70;38.50;;;;;;672496;29;1297;-90
2022/07/07 01:02:00;;;;;;;;;;;28.70;38.10;;;;;;670996;29;1431;-90
2022/07/07 01:02:21;;;;;;;;;;;28.70;38.10;;;;;;668797;29;1237;-90
2022/07/07 01:02:42;;;;;;;;;;;28.70;38.40;;;;;;669079;29;1220;-89
2022/07/07 01:03:03;;;;;;;;;;;28.70;38.30;;;;;;670357;29;1488;-86
2022/07/07 01:03:24;;;;;;;;;;;28.70;38.10;;;;;;673068;29;1623;-89
2022/07/07 01:03:44;;;;;;;;;;;28.70;38.80;;;;;;672369;29;1248;-89
2022/07/07 01:04:07;;;;;;;;;;;28.70;38.60;;;;;;674463;29;1559;-89
2022/07/07 01:04:27;;;;;;;;;;;28.70;38.20;;;;;;675808;29;1153;-91
2022/07/07 01:04:48;;;;;;;;;;;28.70;38.80;;;;;;674647;29;1180;-91
2022/07/07 01:05:09;;;;;;;;;;;28.70;38.40;;;;;;672427;29;1340;-91
2022/07/07 01:05:30;;;;;;;;;;;28.70;38.10;;;;;;672528;29;1192;-89
2022/07/07 01:05:51;;;;;;;;;;;28.70;38.20;;;;;;672585;29;1296;-89
2022/07/07 01:06:11;;;;;;;;;;;28.60;38.00;;;;;;672877;29;1290;-89
2022/07/07 01:06:33;;;;;;;;;;;28.60;39.10;;;;;;672445;29;1349;-88
2022/07/07 01:06:53;;;;;;;;;;;28.60;38.20;;;;;;669447;29;1327;-87
2022/07/07 01:07:15;;;;;;;;;;;28.60;38.50;;;;;;670479;29;1224;-89
2022/07/07 01:07:36;;;;;;;;;;;28.60;38.10;;;;;;669656;29;1204;-90
2022/07/07 01:07:58;;;;;;;;;;;28.60;38.20;;;;;;671607;29;1255;-89
2022/07/07 01:08:18;;;;;;;;;;;28.60;38.10;;;;;;671685;29;1221;-90
2022/07/07 01:08:39;;;;;;;;;;;28.60;38.90;;;;;;671394;29;1311;-89
2022/07/07 01:08:59;;;;;;;;;;;28.50;39.10;;;;;;671819;29;1637;-89
2022/07/07 01:09:21;;;;;;;;;;;28.50;38.40;;;;;;673331;29;891;-90
2022/07/07 01:09:42;;;;;;;;;;;28.50;38.50;;;;;;673641;29;1232;-89
2022/07/07 01:10:04;;;;;;;;;;;28.50;38.30;;;;;;673049;29;1496;-89
2022/07/07 01:10:25;;;;;;;;;;;28.50;38.00;;;;;;672425;29;1492;-89
2022/07/07 01:10:46;;;;;;;;;;;28.60;38.70;;;;;;670527;29;1276;-90
2022/07/07 01:11:06;;;;;;;;;;;28.60;40.50;;;;;;667997;29;1224;-90
2022/07/07 01:11:27;;;;;;;;;;;28.60;38.70;;;;;;668121;29;1181;-90
2022/07/07 01:11:49;;;;;;;;;;;28.60;38.50;;;;;;668247;29;1604;-90
2022/07/07 01:12:09;;;;;;;;;;;28.50;38.80;;;;;;670926;29;1294;-89
2022/07/07 01:12:34;;;;;;;;;;;28.50;39.80;;;;;;670845;29;1352;-90
2022/07/07 01:12:55;;;;;;;;;;;28.50;38.10;;;;;;670260;29;1520;-90
2022/07/07 01:13:15;;;;;;;;;;;28.60;39.10;;;;;;671500;29;793;-86
2022/07/07 01:13:38;;;;;;;;;;;28.50;39.60;;;;;;672923;29;1247;-88
2022/07/07 01:13:58;;;;;;;;;;;28.50;38.60;;;;;;673061;29;1260;-89
2022/07/07 01:14:19;;;;;;;;;;;28.50;39.00;;;;;;670617;29;1434;-89
2022/07/07 01:14:40;;;;;;;;;;;28.50;38.40;;;;;;669223;29;1267;-90
2022/07/07 01:15:01;;;;;;;;;;;28.50;38.60;;;;;;670430;29;1224;-90
2022/07/07 01:15:21;;;;;;;;;;;28.50;38.20;;;;;;668511;29;1275;-89
2022/07/07 01:15:42;;;;;;;;;;;28.50;38.90;;;;;;667810;29;1962;-89
2022/07/07 01:16:03;;;;;;;;;;;28.50;39.10;;;;;;668263;29;1393;-89
2022/07/07 01:16:23;;;;;;;;;;;28.50;38.10;;;;;;668138;29;1374;-90
2022/07/07 01:16:44;;;;;;;;;;;28.50;38.10;;;;;;670469;29;1210;-87
2022/07/07 01:17:05;;;;;;;;;;;28.50;39.10;;;;;;670796;29;1307;-88
2022/07/07 01:17:25;;;;;;;;;;;28.50;38.70;;;;;;672997;29;1219;-88
2022/07/07 01:17:46;;;;;;;;;;;28.50;38.80;;;;;;670459;29;1316;-91
2022/07/07 01:18:06;;;;;;;;;;;28.40;38.70;;;;;;668188;29;1290;-90
2022/07/07 01:18:27;;;;;;;;;;;28.40;38.40;;;;;;668256;29;1323;-90
2022/07/07 01:18:47;;;;;;;;;;;28.40;38.90;;;;;;670741;29;1198;-90
2022/07/07 01:19:08;;;;;;;;;;;28.40;39.50;;;;;;670775;29;1112;-90
2022/07/07 01:19:29;;;;;;;;;;;28.40;39.40;;;;;;673036;29;1240;-89
2022/07/07 01:19:49;;;;;;;;;;;28.40;38.40;;;;;;673007;29;887;-89
2022/07/07 01:20:11;;;;;;;;;;;28.30;38.40;;;;;;673270;29;1489;-89
2022/07/07 01:20:32;;;;;;;;;;;28.30;38.40;;;;;;673034;29;1129;-91
2022/07/07 01:20:53;;;;;;;;;;;28.30;38.50;;;;;;670900;29;1440;-90
2022/07/07 01:21:15;;;;;;;;;;;28.30;38.80;;;;;;670994;29;1261;-90
2022/07/07 01:21:55;;;;;;;;;;;28.20;38.50;;;;;;673137;29;1186;-90
2022/07/07 01:22:16;;;;;;;;;;;26.10;36.80;;;;;;673455;29;1389;-90
2022/07/07 01:22:52;;;;;;;;;;;28.20;38.80;;;;;;675593;29;1440;-92
2022/07/07 01:23:13;;;;;;;;;;;28.30;38.70;;;;;;675560;29;1306;-90
2022/07/07 01:23:34;;;;;;;;;;;28.30;38.50;;;;;;677914;29;1134;-89
2022/07/07 01:23:56;;;;;;;;;;;28.30;39.30;;;;;;675589;29;1297;-90
2022/07/07 01:24:16;;;;;;;;;;;26.40;37.00;;;;;;673231;29;1126;-91
2022/07/07 01:24:37;;;;;;;;;;;28.30;40.70;;;;;;673016;29;1295;-92
2022/07/07 01:24:58;;;;;;;;;;;28.30;39.30;;;;;;670501;29;1231;-90
2022/07/07 01:25:19;;;;;;;;;;;28.30;39.60;;;;;;675229;29;1637;-91
2022/07/07 01:25:39;;;;;;;;;;;28.30;39.10;;;;;;673292;29;1193;-90
2022/07/07 01:26:00;;;;;;;;;;;28.30;39.00;;;;;;670845;29;1451;-90
2022/07/07 01:26:21;;;;;;;;;;;28.30;39.60;;;;;;673494;29;1428;-91
2022/07/07 01:26:41;;;;;;;;;;;28.30;39.80;;;;;;673126;29;1215;-91
2022/07/07 01:27:06;;;;;;;;;;;28.30;38.80;;;;;;673574;29;1228;-91
2022/07/07 01:27:27;;;;;;;;;;;28.30;38.40;;;;;;673196;29;1361;-91
2022/07/07 01:27:49;;;;;;;;;;;28.30;38.80;;;;;;673341;29;976;-91
2022/07/07 01:28:10;;;;;;;;;;;27.60;38.10;;;;;;671925;29;1214;-88
2022/07/07 01:28:30;;;;;;;;;;;28.30;39.10;;;;;;671635;29;1227;-91
2022/07/07 01:28:51;;;;;;;;;;;28.30;39.70;;;;;;671571;29;1332;-90
2022/07/07 01:29:11;;;;;;;;;;;28.30;39.40;;;;;;675458;29;1235;-88
2022/07/07 01:29:36;;;;;;;;;;;28.20;40.00;;;;;;677294;29;1342;-89
2022/07/07 01:29:57;;;;;;;;;;;28.30;39.00;;;;;;677239;29;1257;-90
2022/07/07 01:30:18;;;;;;;;;;;28.30;38.80;;;;;;676558;29;1282;-93
2022/07/07 01:30:39;;;;;;;;;;;28.30;39.80;;;;;;675236;29;1120;-90
2022/07/07 01:31:00;;;;;;;;;;;28.30;39.40;;;;;;676044;29;1239;-91
2022/07/07 01:31:20;;;;;;;;;;;28.30;39.00;;;;;;676051;29;1520;-87
2022/07/07 01:31:41;;;;;;;;;;;28.30;39.60;;;;;;672060;29;1453;-90
2022/07/07 01:32:03;;;;;;;;;;;28.30;39.60;;;;;;676579;29;1434;-90
2022/07/07 01:32:24;;;;;;;;;;;28.30;39.50;;;;;;676125;29;1153;-87
2022/07/07 01:32:44;;;;;;;;;;;28.30;38.50;;;;;;675999;29;1191;-90
2022/07/07 01:33:05;;;;;;;;;;;28.30;39.50;;;;;;676520;29;1246;-88
2022/07/07 01:33:26;;;;;;;;;;;28.30;39.20;;;;;;680992;29;1063;-88
2022/07/07 01:33:47;;;;;;;;;;;28.30;40.10;;;;;;678417;29;1108;-92
2022/07/07 01:34:07;;;;;;;;;;;28.30;38.70;;;;;;673993;29;1394;-91
2022/07/07 01:34:28;;;;;;;;;;;28.30;38.50;;;;;;677541;29;1585;-88
2022/07/07 01:34:49;;;;;;;;;;;28.30;40.30;;;;;;678578;29;1211;-91
2022/07/07 01:35:10;;;;;;;;;;;28.30;38.80;;;;;;675455;29;1260;-89
2022/07/07 01:35:31;;;;;;;;;;;28.30;39.00;;;;;;676059;29;1880;-89
2022/07/07 01:35:51;;;;;;;;;;;28.40;40.60;;;;;;673112;29;1195;-89
2022/07/07 01:36:12;;;;;;;;;;;28.40;40.00;;;;;;673726;29;1375;-89
2022/07/07 01:36:32;;;;;;;;;;;28.40;39.10;;;;;;673273;29;1215;-88
2022/07/07 01:36:53;;;;;;;;;;;28.40;39.50;;;;;;673418;29;1279;-89
2022/07/07 01:37:14;;;;;;;;;;;28.40;39.60;;;;;;673482;29;1370;-90
2022/07/07 01:37:35;;;;;;;;;;;28.40;38.80;;;;;;673342;29;1255;-89
2022/07/07 01:37:55;;;;;;;;;;;28.40;39.30;;;;;;672922;29;1200;-89
2022/07/07 01:38:16;;;;;;;;;;;28.40;39.00;;;;;;672852;29;1230;-89
2022/07/07 01:38:38;;;;;;;;;;;28.40;40.50;;;;;;673300;29;1289;-93
2022/07/07 01:38:58;;;;;;;;;;;28.30;39.30;;;;;;672310;29;1321;-93
2022/07/07 01:39:19;;;;;;;;;;;28.40;38.70;;;;;;672958;29;1360;-90
2022/07/07 01:39:40;;;;;;;;;;;28.40;39.50;;;;;;673617;29;1225;-91
2022/07/07 01:40:00;;;;;;;;;;;28.40;38.90;;;;;;675217;29;1333;-91
2022/07/07 01:40:21;;;;;;;;;;;28.40;39.10;;;;;;672974;29;1247;-91
2022/07/07 01:40:43;;;;;;;;;;;28.40;38.60;;;;;;672787;29;1345;-91
2022/07/07 01:41:04;;;;;;;;;;;28.50;38.70;;;;;;673013;29;1318;-90
2022/07/07 01:41:24;;;;;;;;;;;28.50;39.00;;;;;;675500;29;1123;-91
2022/07/07 01:41:45;;;;;;;;;;;28.50;39.90;;;;;;678221;29;800;-90
2022/07/07 01:42:06;;;;;;;;;;;28.50;38.90;;;;;;675534;29;1239;-90
2022/07/07 01:42:26;;;;;;;;;;;28.50;38.90;;;;;;675166;29;1413;-90
2022/07/07 01:42:47;;;;;;;;;;;28.50;39.40;;;;;;672469;29;1268;-91
2022/07/07 01:43:07;;;;;;;;;;;28.50;38.90;;;;;;672902;29;1188;-92
2022/07/07 01:43:28;;;;;;;;;;;28.50;38.50;;;;;;673009;29;1209;-91
2022/07/07 01:43:48;;;;;;;;;;;28.50;38.90;;;;;;673177;29;1394;-90
2022/07/07 01:44:09;;;;;;;;;;;28.50;38.80;;;;;;673013;29;1301;-91
2022/07/07 01:44:30;;;;;;;;;;;28.50;39.90;;;;;;675233;29;1536;-90
2022/07/07 01:44:51;;;;;;;;;;;28.50;38.60;;;;;;673085;29;1539;-91
2022/07/07 01:45:12;;;;;;;;;;;28.50;38.50;;;;;;676549;29;1912;-91
2022/07/07 01:45:32;;;;;;;;;;;28.50;39.10;;;;;;676104;29;824;-90
2022/07/07 01:45:53;;;;;;;;;;;28.50;38.80;;;;;;673258;29;1223;-90
2022/07/07 01:46:13;;;;;;;;;;;28.50;39.00;;;;;;673119;29;1250;-90
2022/07/07 01:46:34;;;;;;;;;;;28.40;38.30;;;;;;673335;29;1404;-91
2022/07/07 01:46:54;;;;;;;;;;;28.50;38.50;;;;;;673118;29;1084;-89
2022/07/07 01:47:15;;;;;;;;;;;28.50;38.50;;;;;;672848;29;1242;-90
2022/07/07 01:47:36;;;;;;;;;;;28.40;39.20;;;;;;672957;29;1262;-90
2022/07/07 01:47:56;;;;;;;;;;;28.40;39.50;;;;;;673302;29;1711;-89
2022/07/07 01:48:17;;;;;;;;;;;27.40;38.10;;;;;;673000;29;1233;-90
2022/07/07 01:48:37;;;;;;;;;;;28.50;39.20;;;;;;670508;29;1267;-88
2022/07/07 01:48:58;;;;;;;;;;;28.50;39.50;;;;;;670770;29;1222;-91
2022/07/07 01:49:18;;;;;;;;;;;28.50;39.00;;;;;;670277;29;1196;-90
2022/07/07 01:49:39;;;;;;;;;;;28.50;39.10;;;;;;670730;29;1244;-91
2022/07/07 01:50:00;;;;;;;;;;;28.50;38.60;;;;;;672535;29;1345;-90
2022/07/07 01:50:20;;;;;;;;;;;28.50;38.60;;;;;;674683;29;1538;-90
2022/07/07 01:50:41;;;;;;;;;;;28.50;40.00;;;;;;675720;29;781;-90
2022/07/07 01:51:02;;;;;;;;;;;28.50;38.90;;;;;;675447;29;1277;-91
2022/07/07 01:51:23;;;;;;;;;;;28.50;39.00;;;;;;672924;29;1347;-91
2022/07/07 01:51:44;;;;;;;;;;;28.50;39.80;;;;;;672946;29;1321;-90
2022/07/07 01:52:05;;;;;;;;;;;28.50;39.10;;;;;;673294;29;1488;-89
2022/07/07 01:52:25;;;;;;;;;;;28.50;38.40;;;;;;675535;29;1307;-91
2022/07/07 01:52:46;;;;;;;;;;;28.50;39.30;;;;;;673373;29;1188;-90
2022/07/07 01:53:07;;;;;;;;;;;28.50;38.70;;;;;;675480;29;1330;-91
2022/07/07 01:53:27;;;;;;;;;;;28.50;38.90;;;;;;672843;29;1478;-90
2022/07/07 01:53:48;;;;;;;;;;;28.50;38.60;;;;;;673121;29;1480;-91
2022/07/07 01:54:09;;;;;;;;;;;28.60;39.80;;;;;;675287;29;1467;-89
2022/07/07 01:54:30;;;;;;;;;;;28.50;38.40;;;;;;673143;29;1511;-90
2022/07/07 01:54:51;;;;;;;;;;;28.50;38.40;;;;;;672581;29;1211;-91
2022/07/07 01:55:11;;;;;;;;;;;28.50;38.50;;;;;;670709;29;1220;-91
2022/07/07 01:55:33;;;;;;;;;;;28.50;38.60;;;;;;670045;29;1978;-90
2022/07/07 01:55:53;;;;;;;;;;;28.50;38.10;;;;;;672806;29;1217;-90
2022/07/07 01:56:14;;;;;;;;;;;26.80;37.10;;;;;;670317;29;1451;-89
2022/07/07 01:56:35;;;;;;;;;;;28.50;38.10;;;;;;670390;29;1263;-90
2022/07/07 01:56:55;;;;;;;;;;;28.50;38.80;;;;;;670774;29;1288;-91
2022/07/07 01:57:16;;;;;;;;;;;28.50;38.60;;;;;;670397;29;1183;-91
2022/07/07 01:57:37;;;;;;;;;;;28.50;38.60;;;;;;670624;29;1247;-92
2022/07/07 01:57:57;;;;;;;;;;;28.50;38.30;;;;;;673312;29;836;-89
2022/07/07 01:58:18;;;;;;;;;;;28.50;39.30;;;;;;675496;29;1140;-88
2022/07/07 01:58:38;;;;;;;;;;;27.40;38.50;;;;;;672984;29;1329;-92
2022/07/07 01:58:59;;;;;;;;;;;28.50;39.10;;;;;;675446;29;1413;-90
2022/07/07 01:59:19;;;;;;;;;;;28.50;38.90;;;;;;675430;29;1207;-91
2022/07/07 01:59:40;;;;;;;;;;;28.50;38.60;;;;;;675356;29;1254;-90
2022/07/07 02:00:01;;;;;;;;;;;28.50;38.40;;;;;;673205;29;1365;-90
2022/07/07 02:00:22;;;;;;;;;;;28.50;38.90;;;;;;673110;29;1227;-91
2022/07/07 02:00:42;;;;;;;;;;;28.50;38.70;;;;;;672637;29;1097;-91
2022/07/07 02:01:03;;;;;;;;;;;28.50;39.00;;;;;;670088;29;1243;-90
2022/07/07 02:01:23;;;;;;;;;;;28.50;39.20;;;;;;668003;29;1317;-91
2022/07/07 02:01:44;;;;;;;;;;;28.50;38.70;;;;;;670661;29;939;-91
2022/07/07 02:02:05;;;;;;;;;;;28.50;38.50;;;;;;672921;29;1307;-90
2022/07/07 02:02:25;;;;;;;;;;;28.50;38.60;;;;;;670378;29;1374;-90
2022/07/07 02:02:46;;;;;;;;;;;28.60;38.10;;;;;;668124;29;1218;-89
2022/07/07 02:03:07;;;;;;;;;;;28.60;38.40;;;;;;668051;29;1214;-90
2022/07/07 02:03:27;;;;;;;;;;;28.50;39.00;;;;;;667735;29;1273;-92
2022/07/07 02:03:48;;;;;;;;;;;28.60;38.80;;;;;;668115;29;1172;-91
2022/07/07 02:04:08;;;;;;;;;;;28.60;39.40;;;;;;668082;29;1094;-92
2022/07/07 02:04:29;;;;;;;;;;;28.60;40.60;;;;;;668005;29;1151;-90
2022/07/07 02:04:50;;;;;;;;;;;28.60;38.90;;;;;;672253;29;1448;-90
2022/07/07 02:05:11;;;;;;;;;;;28.60;38.70;;;;;;673118;29;1611;-89
2022/07/07 02:05:31;;;;;;;;;;;28.60;38.80;;;;;;670323;29;1368;-90
2022/07/07 02:05:52;;;;;;;;;;;28.60;38.20;;;;;;670353;29;1247;-91